createdAt,value
2023-03-15T00:01:31.169Z,7.90
2023-03-15T00:03:04.392Z,7.90
2023-03-15T00:04:38.582Z,7.92
2023-03-15T00:06:10.270Z,7.92
2023-03-15T00:07:41.778Z,7.91
2023-03-15T00:09:13.496Z,7.89
2023-03-15T00:10:45.758Z,7.90
2023-03-15T00:12:17.270Z,7.90
2023-03-15T00:13:48.804Z,7.91
2023-03-15T00:15:20.878Z,7.96
2023-03-15T00:16:52.436Z,8.04
2023-03-15T00:18:23.972Z,8.09
2023-03-15T00:19:55.441Z,8.11
2023-03-15T00:21:28.900Z,8.14
2023-03-15T00:23:00.684Z,8.24
2023-03-15T00:24:32.255Z,8.31
2023-03-15T00:26:04.111Z,8.38
2023-03-15T00:27:35.817Z,8.42
2023-03-15T00:29:08.113Z,8.44
2023-03-15T00:30:39.746Z,8.47
2023-03-15T00:32:11.260Z,8.47
2023-03-15T00:33:43.002Z,8.52
2023-03-15T00:35:14.669Z,8.54
2023-03-15T00:36:46.267Z,8.54
2023-03-15T00:38:17.746Z,8.58
2023-03-15T00:39:49.196Z,8.59
2023-03-15T00:41:21.044Z,8.61
2023-03-15T00:42:52.706Z,8.61
2023-03-15T00:44:24.652Z,8.60
2023-03-15T00:45:56.204Z,8.61
2023-03-15T00:47:27.741Z,8.62
2023-03-15T00:48:59.229Z,8.59
2023-03-15T00:50:30.753Z,8.62
2023-03-15T00:52:02.234Z,8.60
2023-03-15T00:53:34.358Z,8.59
2023-03-15T00:55:06.133Z,8.61
2023-03-15T00:56:37.826Z,8.61
2023-03-15T00:58:09.284Z,8.58
2023-03-15T00:59:40.975Z,8.58
2023-03-15T01:01:19.174Z,8.58
2023-03-15T01:02:53.849Z,8.57
2023-03-15T01:04:25.488Z,8.58
2023-03-15T01:05:57.164Z,8.55
2023-03-15T01:07:28.698Z,8.51
2023-03-15T01:09:01.825Z,8.46
2023-03-15T01:10:35.024Z,8.35
2023-03-15T01:12:07.092Z,8.32
2023-03-15T01:13:38.682Z,8.31
2023-03-15T01:15:12.034Z,8.30
2023-03-15T01:16:43.542Z,8.31
2023-03-15T01:18:15.079Z,8.35
2023-03-15T01:19:46.599Z,8.38
2023-03-15T01:21:18.156Z,8.42
2023-03-15T01:22:49.728Z,8.38
2023-03-15T01:24:21.461Z,8.34
2023-03-15T01:25:52.970Z,8.36
2023-03-15T01:27:24.458Z,8.36
2023-03-15T01:28:55.935Z,8.38
2023-03-15T01:30:27.454Z,8.37
2023-03-15T01:31:58.976Z,8.34
2023-03-15T01:33:31.270Z,8.32
2023-03-15T01:35:03.045Z,8.28
2023-03-15T01:36:34.638Z,8.25
2023-03-15T01:38:06.364Z,8.21
2023-03-15T01:39:37.868Z,8.20
2023-03-15T01:41:09.976Z,8.19
2023-03-15T01:42:54.517Z,8.20
2023-03-15T01:44:45.693Z,8.20
2023-03-15T01:46:29.440Z,8.17
2023-03-15T01:48:05.803Z,8.17
2023-03-15T01:54:08.930Z,8.24
2023-03-15T01:55:40.691Z,8.26
2023-03-15T01:57:19.750Z,8.31
2023-03-15T01:58:51.521Z,8.32
2023-03-15T02:00:23.268Z,8.29
2023-03-15T02:01:55.085Z,8.25
2023-03-15T02:03:28.284Z,8.23
2023-03-15T02:05:01.221Z,8.23
2023-03-15T02:06:35.234Z,8.27
2023-03-15T02:08:06.950Z,8.25
2023-03-15T02:09:42.850Z,8.23
2023-03-15T02:11:14.450Z,8.24
2023-03-15T02:12:46.860Z,8.26
2023-03-15T02:14:18.399Z,8.24
2023-03-15T02:15:49.932Z,8.21
2023-03-15T02:17:22.546Z,8.21
2023-03-15T02:18:54.038Z,8.26
2023-03-15T02:20:28.199Z,8.28
2023-03-15T02:22:02.054Z,8.29
2023-03-15T02:23:33.648Z,8.22
2023-03-15T02:25:31.452Z,8.16
2023-03-15T02:27:03.836Z,8.19
2023-03-15T02:28:35.580Z,8.14
2023-03-15T02:30:07.410Z,8.15
2023-03-15T02:31:39.005Z,8.19
2023-03-15T02:33:16.725Z,8.16
2023-03-15T02:34:48.303Z,8.11
2023-03-15T02:36:20.607Z,8.04
2023-03-15T02:37:52.117Z,8.01
2023-03-15T02:39:23.878Z,7.99
2023-03-15T02:40:55.469Z,7.99
2023-03-15T02:42:26.991Z,8.01
2023-03-15T02:44:05.819Z,8.02
2023-03-15T02:45:37.394Z,8.02
2023-03-15T02:47:10.688Z,8.06
2023-03-15T02:48:42.209Z,8.08
2023-03-15T02:50:13.813Z,8.07
2023-03-15T02:51:45.305Z,8.08
2023-03-15T02:53:16.896Z,8.09
2023-03-15T02:54:48.472Z,8.08
2023-03-15T02:56:20.114Z,8.12
2023-03-15T02:57:51.650Z,8.09
2023-03-15T02:59:23.255Z,8.05
2023-03-15T03:00:54.904Z,8.00
2023-03-15T03:02:26.608Z,8.00
2023-03-15T03:03:58.362Z,7.98
2023-03-15T03:05:29.885Z,7.95
2023-03-15T03:07:01.351Z,7.99
2023-03-15T03:08:33.401Z,7.98
2023-03-15T03:10:05.810Z,7.95
2023-03-15T03:11:38.035Z,7.94
2023-03-15T03:13:09.688Z,7.92
2023-03-15T03:14:43.511Z,7.94
2023-03-15T03:16:15.407Z,7.95
2023-03-15T03:17:47.091Z,7.94
2023-03-15T03:19:18.996Z,7.92
2023-03-15T03:20:50.588Z,7.93
2023-03-15T03:22:24.914Z,7.96
2023-03-15T03:23:56.634Z,7.95
2023-03-15T03:25:28.433Z,7.94
2023-03-15T03:27:01.064Z,7.90
2023-03-15T03:28:33.335Z,7.91
2023-03-15T03:30:05.631Z,7.87
2023-03-15T03:31:37.182Z,7.83
2023-03-15T03:33:08.899Z,7.82
2023-03-15T03:34:40.896Z,7.77
2023-03-15T03:36:13.180Z,7.71
2023-03-15T03:37:44.844Z,7.69
2023-03-15T03:39:16.818Z,7.70
2023-03-15T03:40:48.754Z,7.77
2023-03-15T03:42:20.518Z,7.74
2023-03-15T03:43:52.002Z,7.73
2023-03-15T03:45:23.500Z,7.71
2023-03-15T03:46:55.247Z,7.71
2023-03-15T03:48:26.760Z,7.70
2023-03-15T03:49:58.300Z,7.70
2023-03-15T03:51:29.870Z,7.64
2023-03-15T03:53:01.563Z,7.58
2023-03-15T03:54:33.250Z,7.58
2023-03-15T03:56:05.595Z,7.56
2023-03-15T03:57:37.323Z,7.55
2023-03-15T03:59:09.104Z,7.51
2023-03-15T04:00:41.863Z,7.48
2023-03-15T04:02:13.398Z,7.48
2023-03-15T04:03:45.006Z,7.52
2023-03-15T04:05:16.749Z,7.51
2023-03-15T04:06:50.755Z,7.51
2023-03-15T04:08:23.030Z,7.55
2023-03-15T04:09:54.982Z,7.59
2023-03-15T04:11:27.070Z,7.62
2023-03-15T04:12:58.571Z,7.60
2023-03-15T04:14:30.258Z,7.53
2023-03-15T04:16:04.138Z,7.48
2023-03-15T04:17:35.911Z,7.46
2023-03-15T04:19:07.785Z,7.45
2023-03-15T04:20:39.618Z,7.46
2023-03-15T04:22:15.552Z,7.47
2023-03-15T04:23:47.694Z,7.47
2023-03-15T04:25:19.742Z,7.48
2023-03-15T04:26:51.244Z,7.48
2023-03-15T04:28:23.034Z,7.48
2023-03-15T04:29:54.592Z,7.47
2023-03-15T04:31:29.144Z,7.45
2023-03-15T04:33:03.491Z,7.42
2023-03-15T04:34:39.022Z,7.42
2023-03-15T04:36:19.144Z,7.42
2023-03-15T04:37:51.839Z,7.43
2023-03-15T04:39:23.847Z,7.50
2023-03-15T04:40:55.361Z,7.52
2023-03-15T04:42:27.115Z,7.53
2023-03-15T04:43:58.757Z,7.53
2023-03-15T04:45:31.578Z,7.51
2023-03-15T04:47:03.195Z,7.49
2023-03-15T04:48:35.075Z,7.43
2023-03-15T04:50:06.972Z,7.36
2023-03-15T04:51:38.599Z,7.31
2023-03-15T04:53:10.312Z,7.29
2023-03-15T04:54:42.051Z,7.31
2023-03-15T04:56:13.601Z,7.35
2023-03-15T04:57:45.392Z,7.41
2023-03-15T04:59:17.401Z,7.45
2023-03-15T05:00:48.929Z,7.48
2023-03-15T05:02:20.754Z,7.52
2023-03-15T05:03:52.338Z,7.56
2023-03-15T05:05:24.128Z,7.60
2023-03-15T05:06:55.705Z,7.65
2023-03-15T05:08:27.224Z,7.70
2023-03-15T05:09:58.846Z,7.72
2023-03-15T05:11:30.393Z,7.65
2023-03-15T05:13:01.946Z,7.64
2023-03-15T05:14:33.504Z,7.64
2023-03-15T05:16:05.124Z,7.68
2023-03-15T05:17:36.764Z,7.70
2023-03-15T05:19:08.460Z,7.68
2023-03-15T05:20:39.972Z,7.70
2023-03-15T05:22:12.021Z,7.70
2023-03-15T05:23:43.583Z,7.68
2023-03-15T05:25:15.509Z,7.64
2023-03-15T05:26:47.393Z,7.57
2023-03-15T05:28:18.933Z,7.53
2023-03-15T05:29:51.522Z,7.53
2023-03-15T05:31:23.153Z,7.56
2023-03-15T05:32:54.816Z,7.64
2023-03-15T05:34:26.362Z,7.70
2023-03-15T05:35:58.465Z,7.73
2023-03-15T05:37:30.126Z,7.84
2023-03-15T05:39:03.380Z,7.90
2023-03-15T05:40:34.905Z,7.87
2023-03-15T05:42:06.634Z,7.88
2023-03-15T05:43:38.138Z,7.88
2023-03-15T05:45:09.978Z,7.91
2023-03-15T05:46:41.582Z,7.98
2023-03-15T05:48:13.262Z,8.06
2023-03-15T05:49:44.889Z,8.17
2023-03-15T05:51:16.584Z,8.26
2023-03-15T05:52:48.067Z,8.34
2023-03-15T05:54:19.698Z,8.39
2023-03-15T05:55:51.369Z,8.42
2023-03-15T05:57:22.880Z,8.46
2023-03-15T05:58:54.472Z,8.47
2023-03-15T06:00:26.588Z,8.46
2023-03-15T06:01:58.090Z,8.44
2023-03-15T06:03:31.712Z,8.45
2023-03-15T06:05:03.260Z,8.47
2023-03-15T06:06:34.886Z,8.51
2023-03-15T06:08:06.418Z,8.55
2023-03-15T06:09:37.971Z,8.56
2023-03-15T06:11:09.652Z,8.55
2023-03-15T06:12:41.633Z,8.56
2023-03-15T06:14:13.253Z,8.63
2023-03-15T06:15:46.488Z,8.71
2023-03-15T06:17:18.083Z,8.80
2023-03-15T06:18:49.688Z,8.85
2023-03-15T06:20:21.337Z,8.88
2023-03-15T06:21:53.142Z,8.94
2023-03-15T06:23:24.834Z,9.03
2023-03-15T06:24:56.662Z,9.08
2023-03-15T06:26:28.154Z,9.10
2023-03-15T06:27:59.852Z,9.13
2023-03-15T06:29:31.498Z,9.17
2023-03-15T06:31:09.780Z,9.22
2023-03-15T06:32:41.398Z,9.29
2023-03-15T06:34:13.005Z,9.36
2023-03-15T06:35:46.860Z,9.37
2023-03-15T06:37:28.868Z,9.41
2023-03-15T06:39:05.894Z,9.46
2023-03-15T06:40:37.525Z,9.53
2023-03-15T06:42:09.455Z,9.61
2023-03-15T06:43:41.360Z,9.67
2023-03-15T06:45:13.284Z,9.76
2023-03-15T06:46:45.143Z,9.83
2023-03-15T06:48:21.654Z,9.88
2023-03-15T06:50:01.956Z,9.88
2023-03-15T06:58:02.685Z,9.90
2023-03-15T06:59:35.257Z,9.95
2023-03-15T07:01:07.115Z,9.97
2023-03-15T07:02:39.031Z,9.99
2023-03-15T07:04:12.339Z,9.90
2023-03-15T07:05:44.015Z,9.88
2023-03-15T07:07:15.673Z,9.92
2023-03-15T07:08:47.389Z,9.96
2023-03-15T07:10:19.125Z,10.03
2023-03-15T07:11:50.779Z,10.03
2023-03-15T07:13:22.415Z,10.07
2023-03-15T07:14:54.135Z,10.11
2023-03-15T07:16:28.696Z,10.13
2023-03-15T07:18:01.180Z,10.21
2023-03-15T07:19:33.833Z,10.26
2023-03-15T07:21:07.729Z,10.24
2023-03-15T07:22:39.751Z,10.22
2023-03-15T07:24:11.319Z,10.19
2023-03-15T07:25:54.381Z,10.08
2023-03-15T07:27:26.726Z,10.10
2023-03-15T07:28:58.555Z,10.16
2023-03-15T07:30:30.365Z,10.19
2023-03-15T07:32:02.711Z,10.22
2023-03-15T07:33:36.972Z,10.29
2023-03-15T07:35:11.589Z,10.29
2023-03-15T07:36:44.806Z,10.24
2023-03-15T07:38:16.562Z,10.17
2023-03-15T07:39:48.777Z,10.15
2023-03-15T07:41:20.883Z,10.18
2023-03-15T07:42:52.493Z,10.25
2023-03-15T07:44:24.325Z,10.19
2023-03-15T07:45:56.069Z,10.10
2023-03-15T07:47:27.691Z,10.02
2023-03-15T07:48:59.553Z,10.01
2023-03-15T07:50:31.268Z,9.91
2023-03-15T07:52:04.371Z,9.90
2023-03-15T07:53:36.892Z,9.96
2023-03-15T07:55:09.491Z,10.01
2023-03-15T07:56:41.456Z,10.11
2023-03-15T07:58:15.627Z,10.09
2023-03-15T07:59:49.400Z,10.10
2023-03-15T08:01:25.388Z,10.13
2023-03-15T08:03:01.682Z,10.19
2023-03-15T08:04:35.806Z,10.27
2023-03-15T08:06:09.005Z,10.34
2023-03-15T08:07:40.926Z,10.39
2023-03-15T08:09:13.126Z,10.36
2023-03-15T08:10:45.081Z,10.36
2023-03-15T08:12:16.744Z,10.43
2023-03-15T08:13:48.336Z,10.49
2023-03-15T08:15:20.160Z,10.51
2023-03-15T08:16:51.840Z,10.61
2023-03-15T08:18:24.876Z,10.65
2023-03-15T08:19:56.536Z,10.67
2023-03-15T08:21:28.252Z,10.59
2023-03-15T08:23:00.333Z,10.58
2023-03-15T08:24:32.209Z,10.61
2023-03-15T08:26:04.021Z,10.62
2023-03-15T08:27:36.163Z,10.65
2023-03-15T08:29:08.091Z,10.62
2023-03-15T08:30:40.138Z,10.60
2023-03-15T08:32:12.100Z,10.60
2023-03-15T08:33:44.005Z,10.61
2023-03-15T08:35:16.664Z,10.61
2023-03-15T08:36:49.016Z,10.61
2023-03-15T08:38:21.091Z,10.62
2023-03-15T08:40:01.090Z,10.56
2023-03-15T08:41:33.140Z,10.45
2023-03-15T08:43:05.079Z,10.46
2023-03-15T08:44:37.157Z,10.48
2023-03-15T08:46:13.892Z,10.51
2023-03-15T08:47:46.871Z,10.59
2023-03-15T08:49:28.253Z,10.69
2023-03-15T08:51:07.661Z,10.69
2023-03-15T08:52:54.050Z,10.66
2023-03-15T08:54:27.689Z,10.67
2023-03-15T08:55:59.579Z,10.70
2023-03-15T08:57:33.257Z,10.69
2023-03-15T08:59:05.895Z,10.71
2023-03-15T09:00:38.370Z,10.72
2023-03-15T09:02:11.614Z,10.79
2023-03-15T09:03:43.354Z,10.87
2023-03-15T09:05:16.265Z,10.96
2023-03-15T09:06:48.003Z,11.11
2023-03-15T09:08:21.619Z,11.23
2023-03-15T09:09:54.545Z,11.35
2023-03-15T09:11:26.804Z,11.39
2023-03-15T09:12:58.870Z,11.38
2023-03-15T09:14:30.638Z,11.41
2023-03-15T09:16:03.864Z,11.43
2023-03-15T09:17:35.710Z,11.37
2023-03-15T09:19:07.596Z,11.31
2023-03-15T09:20:39.906Z,11.31
2023-03-15T09:22:17.230Z,11.26
2023-03-15T09:23:55.635Z,11.28
2023-03-15T09:25:28.206Z,11.28
2023-03-15T09:27:00.083Z,11.36
2023-03-15T09:28:32.160Z,11.41
2023-03-15T09:30:03.881Z,11.48
2023-03-15T09:31:35.596Z,11.48
2023-03-15T09:33:08.030Z,11.52
2023-03-15T09:34:42.259Z,11.54
2023-03-15T09:36:14.078Z,11.55
2023-03-15T09:37:46.160Z,11.59
2023-03-15T09:39:17.788Z,11.55
2023-03-15T09:40:49.675Z,11.50
2023-03-15T09:42:34.636Z,11.47
2023-03-15T09:44:06.255Z,11.45
2023-03-15T09:45:40.983Z,11.43
2023-03-15T09:47:18.628Z,11.35
2023-03-15T09:48:59.713Z,11.31
2023-03-15T09:50:55.413Z,11.29
2023-03-15T09:52:29.675Z,11.26
2023-03-15T09:54:01.380Z,11.27
2023-03-15T09:55:33.345Z,11.20
2023-03-15T09:57:06.236Z,11.22
2023-03-15T09:58:37.798Z,11.26
2023-03-15T10:00:13.472Z,11.31
2023-03-15T10:01:45.495Z,11.29
2023-03-15T10:03:25.572Z,11.29
2023-03-15T10:05:01.376Z,11.28
2023-03-15T10:06:37.892Z,11.27
2023-03-15T10:08:13.311Z,11.24
2023-03-15T10:09:44.915Z,11.27
2023-03-15T10:11:29.052Z,11.28
2023-03-15T10:13:08.770Z,11.27
2023-03-15T10:14:40.315Z,11.21
2023-03-15T10:16:29.349Z,11.15
2023-03-15T10:18:21.298Z,10.94
2023-03-15T10:19:53.794Z,10.77
2023-03-15T10:21:28.575Z,10.70
2023-03-15T10:23:04.223Z,10.68
2023-03-15T10:24:44.736Z,10.63
2023-03-15T10:26:17.435Z,10.52
2023-03-15T10:27:52.590Z,10.45
2023-03-15T10:29:25.362Z,10.36
2023-03-15T10:30:57.856Z,10.29
2023-03-15T10:32:31.030Z,10.23
2023-03-15T10:34:03.389Z,10.18
2023-03-15T10:35:34.998Z,10.19
2023-03-15T10:37:08.767Z,10.16
2023-03-15T10:38:41.958Z,10.09
2023-03-15T10:40:16.801Z,10.08
2023-03-15T10:41:48.980Z,10.11
2023-03-15T10:43:22.098Z,10.17
2023-03-15T10:44:53.921Z,10.18
2023-03-15T10:46:25.526Z,10.30
2023-03-15T10:48:00.605Z,10.37
2023-03-15T10:49:39.449Z,10.46
2023-03-15T10:51:21.204Z,10.49
2023-03-15T10:52:55.048Z,10.56
2023-03-15T10:54:27.260Z,10.62
2023-03-15T10:56:00.388Z,10.58
2023-03-15T10:57:34.303Z,10.51
2023-03-15T10:59:12.729Z,10.43
2023-03-15T11:00:49.390Z,10.43
2023-03-15T11:02:24.671Z,10.43
2023-03-15T11:04:03.501Z,10.47
2023-03-15T11:05:42.374Z,10.61
2023-03-15T11:07:14.336Z,10.65
2023-03-15T11:08:46.146Z,10.74
2023-03-15T11:10:21.663Z,10.86
2023-03-15T11:12:00.901Z,10.99
2023-03-15T11:13:33.650Z,11.12
2023-03-15T11:15:08.078Z,11.20
2023-03-15T11:16:40.204Z,11.23
2023-03-15T11:18:17.203Z,11.29
2023-03-15T11:19:59.533Z,11.37
2023-03-15T11:21:34.843Z,11.42
2023-03-15T11:23:13.737Z,11.45
2023-03-15T11:24:45.288Z,11.54
2023-03-15T11:26:32.272Z,11.59
2023-03-15T11:28:04.778Z,11.65
2023-03-15T11:29:37.576Z,11.67
2023-03-15T11:31:09.279Z,11.67
2023-03-15T11:32:40.977Z,11.69
2023-03-15T11:34:21.617Z,11.67
2023-03-15T11:35:58.553Z,11.68
2023-03-15T11:37:37.481Z,11.65
2023-03-15T11:39:36.738Z,11.63
2023-03-15T11:41:31.810Z,11.67
2023-03-15T11:43:05.827Z,11.60
2023-03-15T11:44:40.847Z,11.45
2023-03-15T11:46:17.752Z,11.36
2023-03-15T11:47:51.577Z,11.32
2023-03-15T11:49:42.083Z,11.21
2023-03-15T11:51:14.065Z,11.17
2023-03-15T11:52:53.696Z,11.11
2023-03-15T11:54:27.494Z,11.06
2023-03-15T11:58:35.252Z,10.96
2023-03-15T12:00:25.557Z,10.90
2023-03-15T12:02:10.815Z,10.89
2023-03-15T12:03:43.384Z,10.80
2023-03-15T12:05:35.020Z,10.81
2023-03-15T12:07:09.563Z,10.86
2023-03-15T12:08:42.453Z,10.87
2023-03-15T12:10:20.928Z,10.89
2023-03-15T12:11:52.546Z,10.90
2023-03-15T12:13:28.732Z,10.88
2023-03-15T12:15:08.966Z,10.86
2023-03-15T12:16:45.556Z,10.94
2023-03-15T12:18:18.854Z,10.94
2023-03-15T12:20:00.186Z,10.95
2023-03-15T12:21:32.664Z,10.96
2023-03-15T12:23:19.589Z,10.96
2023-03-15T12:24:51.151Z,10.96
2023-03-15T12:26:25.243Z,10.96
2023-03-15T12:27:57.104Z,10.92
2023-03-15T12:29:29.030Z,10.88
2023-03-15T12:31:02.250Z,10.82
2023-03-15T12:32:36.609Z,10.64
2023-03-15T12:34:15.370Z,10.53
2023-03-15T12:43:10.474Z,10.16
2023-03-15T12:44:43.284Z,10.06
2023-03-15T12:46:33.732Z,9.93
2023-03-15T12:48:14.336Z,9.84
2023-03-15T12:49:46.489Z,9.87
2023-03-15T12:51:33.904Z,9.97
2023-03-15T12:53:13.231Z,10.00
2023-03-15T12:54:49.255Z,10.01
2023-03-15T12:56:32.854Z,10.00
2023-03-15T12:58:04.863Z,10.03
2023-03-15T12:59:36.849Z,10.05
2023-03-15T13:01:09.376Z,10.10
2023-03-15T13:02:45.321Z,10.09
2023-03-15T13:04:17.078Z,10.07
2023-03-15T13:06:02.851Z,10.03
2023-03-15T13:07:50.206Z,9.99
2023-03-15T13:09:34.376Z,9.90
2023-03-15T13:11:18.391Z,9.88
2023-03-15T13:12:51.994Z,9.86
2023-03-15T13:14:23.605Z,9.87
2023-03-15T13:16:12.694Z,9.90
2023-03-15T13:17:50.438Z,9.87
2023-03-15T13:19:25.454Z,9.82
2023-03-15T13:21:17.211Z,9.81
2023-03-15T13:23:04.108Z,9.83
2023-03-15T13:25:14.568Z,9.93
2023-03-15T13:26:49.166Z,9.99
2023-03-15T13:28:39.980Z,10.00
2023-03-15T13:30:20.981Z,10.01
2023-03-15T13:32:10.945Z,10.04
2023-03-15T13:33:42.708Z,10.05
2023-03-15T13:35:14.427Z,10.00
2023-03-15T13:36:47.526Z,9.84
2023-03-15T13:38:22.770Z,9.73
2023-03-15T13:39:54.560Z,9.66
2023-03-15T13:41:27.160Z,9.55
2023-03-15T13:43:00.317Z,9.49
2023-03-15T13:44:32.069Z,9.38
2023-03-15T13:46:03.919Z,9.27
2023-03-15T13:47:36.084Z,9.16
2023-03-15T13:49:08.097Z,9.17
2023-03-15T13:50:40.133Z,9.23
2023-03-15T13:52:15.028Z,9.29
2023-03-15T13:53:50.112Z,9.32
2023-03-15T13:55:22.745Z,9.34
2023-03-15T13:56:55.847Z,9.36
2023-03-15T13:58:27.435Z,9.37
2023-03-15T14:00:00.951Z,9.35
2023-03-15T14:01:35.726Z,9.37
2023-03-15T14:03:07.758Z,9.44
2023-03-15T14:04:39.385Z,9.48
2023-03-15T14:06:14.184Z,9.50
2023-03-15T14:07:46.663Z,9.41
2023-03-15T14:09:22.516Z,9.30
2023-03-15T14:11:25.822Z,9.18
2023-03-15T14:18:23.692Z,8.80
2023-03-15T14:19:57.264Z,8.73
2023-03-15T14:21:31.345Z,8.68
2023-03-15T14:23:04.130Z,8.70
2023-03-15T14:24:37.061Z,8.72
2023-03-15T14:26:13.862Z,8.73
2023-03-15T14:27:45.533Z,8.80
2023-03-15T14:29:18.223Z,8.85
2023-03-15T14:30:56.786Z,8.94
2023-03-15T14:32:35.636Z,9.01
2023-03-15T14:34:30.020Z,9.02
2023-03-15T14:36:03.023Z,9.07
2023-03-15T14:37:37.536Z,9.10
2023-03-15T14:39:18.755Z,9.14
2023-03-15T14:40:51.776Z,9.21
2023-03-15T14:42:23.364Z,9.24
2023-03-15T14:43:55.042Z,9.28
2023-03-15T14:45:27.612Z,9.36
2023-03-15T14:46:59.451Z,9.41
2023-03-15T14:48:32.192Z,9.42
2023-03-15T14:50:03.937Z,9.44
2023-03-15T14:51:35.573Z,9.49
2023-03-15T14:53:07.877Z,9.51
2023-03-15T14:54:39.753Z,9.54
2023-03-15T14:56:12.319Z,9.59
2023-03-15T14:57:44.018Z,9.63
2023-03-15T14:59:15.599Z,9.66
2023-03-15T15:00:48.084Z,9.63
2023-03-15T15:02:19.941Z,9.60
2023-03-15T15:03:55.431Z,9.60
2023-03-15T15:05:27.039Z,9.62
2023-03-15T15:06:58.796Z,9.60
2023-03-15T15:08:30.492Z,9.58
2023-03-15T15:10:02.304Z,9.57
2023-03-15T15:11:33.961Z,9.57
2023-03-15T15:13:07.112Z,9.53
2023-03-15T15:14:39.093Z,9.52
2023-03-15T15:16:11.087Z,9.56
2023-03-15T15:17:42.839Z,9.56
2023-03-15T15:19:14.582Z,9.56
2023-03-15T15:20:46.534Z,9.55
2023-03-15T15:22:22.483Z,9.49
2023-03-15T15:23:58.787Z,9.43
2023-03-15T15:25:31.055Z,9.41
2023-03-15T15:27:02.782Z,9.36
2023-03-15T15:28:37.232Z,9.33
2023-03-15T15:30:16.304Z,9.30
2023-03-15T15:31:48.300Z,9.26
2023-03-15T15:41:33.934Z,9.06
2023-03-15T15:43:09.999Z,8.92
2023-03-15T15:44:42.354Z,8.83
2023-03-15T15:46:14.233Z,8.84
2023-03-15T15:47:45.887Z,8.84
2023-03-15T15:49:18.265Z,8.83
2023-03-15T15:50:49.850Z,8.84
2023-03-15T15:52:22.959Z,8.86
2023-03-15T15:53:58.239Z,8.86
2023-03-15T15:55:34.913Z,8.90
2023-03-15T16:08:08.306Z,8.79
2023-03-15T16:09:46.016Z,8.77
2023-03-15T16:11:17.750Z,8.72
2023-03-15T16:12:49.835Z,8.63
2023-03-15T16:14:21.582Z,8.57
2023-03-15T16:15:53.971Z,8.56
2023-03-15T16:17:25.666Z,8.59
2023-03-15T16:18:57.237Z,8.62
2023-03-15T16:20:28.859Z,8.66
2023-03-15T16:22:00.722Z,8.71
2023-03-15T16:23:32.271Z,8.76
2023-03-15T16:25:05.048Z,8.80
2023-03-15T16:26:37.289Z,8.84
2023-03-15T16:28:09.184Z,8.81
2023-03-15T16:29:44.557Z,8.79
2023-03-15T16:31:16.490Z,8.76
2023-03-15T16:32:48.330Z,8.73
2023-03-15T16:34:20.801Z,8.71
2023-03-15T16:35:53.246Z,8.69
2023-03-15T16:37:25.881Z,8.66
2023-03-15T16:38:57.438Z,8.66
2023-03-15T16:40:29.778Z,8.67
2023-03-15T16:42:01.664Z,8.71
2023-03-15T16:43:33.199Z,8.72
2023-03-15T16:45:14.106Z,8.79
2023-03-15T16:46:45.886Z,8.85
2023-03-15T16:48:17.528Z,8.89
2023-03-15T16:49:49.118Z,8.89
2023-03-15T16:51:20.778Z,8.90
2023-03-15T16:52:52.984Z,8.86
2023-03-15T16:54:40.219Z,8.86
2023-03-15T16:56:13.378Z,8.84
2023-03-15T16:57:45.054Z,8.84
2023-03-15T16:59:17.008Z,8.89
2023-03-15T17:00:48.747Z,8.93
2023-03-15T17:02:24.799Z,8.99
2023-03-15T17:03:56.359Z,9.00
2023-03-15T17:05:28.046Z,9.04
2023-03-15T17:06:59.680Z,9.04
2023-03-15T17:08:31.611Z,9.04
2023-03-15T17:10:07.874Z,9.01
2023-03-15T17:11:39.675Z,9.01
2023-03-15T17:13:12.527Z,8.99
2023-03-15T17:14:44.567Z,8.98
2023-03-15T17:16:16.977Z,9.00
2023-03-15T17:17:48.796Z,8.99
2023-03-15T17:19:20.384Z,8.97
2023-03-15T17:20:52.104Z,9.00
2023-03-15T17:22:23.719Z,9.01
2023-03-15T17:23:55.308Z,9.01
2023-03-15T17:25:26.980Z,9.01
2023-03-15T17:26:58.726Z,8.97
2023-03-15T17:28:31.083Z,8.95
2023-03-15T17:30:02.791Z,8.95
2023-03-15T17:31:34.680Z,8.92
2023-03-15T17:33:06.600Z,8.89
2023-03-15T17:34:38.442Z,8.86
2023-03-15T17:36:13.311Z,8.86
2023-03-15T17:37:45.062Z,8.86
2023-03-15T17:39:16.943Z,8.83
2023-03-15T17:40:48.599Z,8.81
2023-03-15T17:42:20.599Z,8.82
2023-03-15T17:43:52.742Z,8.85
2023-03-15T17:45:25.330Z,8.86
2023-03-15T17:46:56.886Z,8.88
2023-03-15T17:48:28.566Z,8.89
2023-03-15T17:50:00.909Z,8.87
2023-03-15T17:51:33.157Z,8.84
2023-03-15T17:53:05.812Z,8.81
2023-03-15T17:54:37.420Z,8.74
2023-03-15T17:56:09.618Z,8.71
2023-03-15T17:57:45.798Z,8.70
2023-03-15T17:59:23.957Z,8.67
2023-03-15T18:00:55.761Z,8.64
2023-03-15T18:02:27.335Z,8.61
2023-03-15T18:03:59.745Z,8.60
2023-03-15T18:05:31.481Z,8.60
2023-03-15T18:07:03.015Z,8.61
2023-03-15T18:08:34.602Z,8.60
2023-03-15T18:10:06.487Z,8.55
2023-03-15T18:11:40.342Z,8.48
2023-03-15T18:13:17.871Z,8.40
2023-03-15T18:14:49.664Z,8.37
2023-03-15T18:16:21.380Z,8.33
2023-03-15T18:17:53.066Z,8.33
2023-03-15T18:19:25.413Z,8.35
2023-03-15T18:20:57.039Z,8.40
2023-03-15T18:22:28.583Z,8.42
2023-03-15T18:24:00.181Z,8.43
2023-03-15T18:25:32.757Z,8.45
2023-03-15T18:27:04.484Z,8.47
2023-03-15T18:28:36.116Z,8.47
2023-03-15T18:30:08.192Z,8.49
2023-03-15T18:31:40.704Z,8.49
2023-03-15T18:33:12.271Z,8.53
2023-03-15T18:34:43.880Z,8.55
2023-03-15T18:36:15.445Z,8.56
2023-03-15T18:37:47.101Z,8.56
2023-03-15T18:39:18.748Z,8.57
2023-03-15T18:40:51.872Z,8.62
2023-03-15T18:42:23.472Z,8.65
2023-03-15T18:43:55.013Z,8.69
2023-03-15T18:45:27.556Z,8.71
2023-03-15T18:46:59.068Z,8.73
2023-03-15T18:48:39.981Z,8.70
2023-03-15T18:50:12.800Z,8.71
2023-03-15T18:51:44.464Z,8.73
2023-03-15T18:53:15.971Z,8.71
2023-03-15T18:54:47.465Z,8.68
2023-03-15T18:56:19.892Z,8.63
2023-03-15T18:57:52.138Z,8.62
2023-03-15T18:59:25.832Z,8.61
2023-03-15T19:00:57.523Z,8.62
2023-03-15T19:02:29.744Z,8.60
2023-03-15T19:04:01.329Z,8.59
2023-03-15T19:05:33.836Z,8.59
2023-03-15T19:07:05.563Z,8.59
2023-03-15T19:08:37.188Z,8.55
2023-03-15T19:10:10.041Z,8.58
2023-03-15T19:11:43.579Z,8.54
2023-03-15T19:13:15.162Z,8.53
2023-03-15T19:14:46.806Z,8.51
2023-03-15T19:16:18.895Z,8.51
2023-03-15T19:17:51.388Z,8.49
2023-03-15T19:19:23.035Z,8.45
2023-03-15T19:20:54.625Z,8.44
2023-03-15T19:22:29.230Z,8.43
2023-03-15T19:24:01.031Z,8.38
2023-03-15T19:25:32.614Z,8.37
2023-03-15T19:27:04.348Z,8.33
2023-03-15T19:28:36.896Z,8.31
2023-03-15T19:30:09.237Z,8.31
2023-03-15T19:31:41.260Z,8.34
2023-03-15T19:33:12.962Z,8.34
2023-03-15T19:34:44.742Z,8.33
2023-03-15T19:36:17.152Z,8.31
2023-03-15T19:37:50.118Z,8.31
2023-03-15T19:39:21.877Z,8.34
2023-03-15T19:40:55.408Z,8.36
2023-03-15T19:42:27.348Z,8.40
2023-03-15T19:43:58.939Z,8.41
2023-03-15T19:45:30.587Z,8.41
2023-03-15T19:47:02.505Z,8.39
2023-03-15T19:48:34.827Z,8.38
2023-03-15T19:50:06.669Z,8.37
2023-03-15T19:51:38.344Z,8.35
2023-03-15T19:53:10.094Z,8.35
2023-03-15T19:54:41.645Z,8.35
2023-03-15T19:56:13.377Z,8.35
2023-03-15T19:57:45.107Z,8.35
2023-03-15T19:59:16.727Z,8.33
2023-03-15T20:00:52.211Z,8.34
2023-03-15T20:02:24.723Z,8.33
2023-03-15T20:03:56.497Z,8.33
2023-03-15T20:05:28.123Z,8.29
2023-03-15T20:06:59.711Z,8.26
2023-03-15T20:08:31.380Z,8.25
2023-03-15T20:10:03.838Z,8.24
2023-03-15T20:11:35.468Z,8.23
2023-03-15T20:13:09.370Z,8.21
2023-03-15T20:14:41.042Z,8.19
2023-03-15T20:16:12.799Z,8.19
2023-03-15T20:17:44.812Z,8.18
2023-03-15T20:19:16.481Z,8.18
2023-03-15T20:20:48.173Z,8.21
2023-03-15T20:22:20.067Z,8.21
2023-03-15T20:23:51.740Z,8.24
2023-03-15T20:25:23.271Z,8.25
2023-03-15T20:26:54.902Z,8.25
2023-03-15T20:28:26.512Z,8.25
2023-03-15T20:29:58.022Z,8.23
2023-03-15T20:31:29.524Z,8.24
2023-03-15T20:33:01.599Z,8.26
2023-03-15T20:34:33.316Z,8.28
2023-03-15T20:36:05.227Z,8.26
2023-03-15T20:37:37.789Z,8.23
2023-03-15T20:39:09.924Z,8.24
2023-03-15T20:40:41.754Z,8.22
2023-03-15T20:42:13.291Z,8.21
2023-03-15T20:43:45.455Z,8.17
2023-03-15T20:45:17.020Z,8.17
2023-03-15T20:46:48.666Z,8.13
2023-03-15T20:48:22.305Z,8.11
2023-03-15T20:49:54.332Z,8.06
2023-03-15T20:51:25.841Z,8.02
2023-03-15T20:52:57.513Z,7.99
2023-03-15T20:54:29.140Z,7.99
2023-03-15T20:56:00.898Z,8.04
2023-03-15T20:57:32.596Z,8.02
2023-03-15T20:59:04.134Z,8.04
2023-03-15T21:00:36.302Z,8.06
2023-03-15T21:02:09.879Z,8.07
2023-03-15T21:03:41.711Z,8.09
2023-03-15T21:05:13.780Z,8.10
2023-03-15T21:06:45.295Z,8.08
2023-03-15T21:08:17.491Z,8.09
2023-03-15T21:09:49.061Z,8.10
2023-03-15T21:11:20.678Z,8.08
2023-03-15T21:12:52.218Z,8.03
2023-03-15T21:14:23.882Z,8.01
2023-03-15T21:15:55.405Z,7.99
2023-03-15T21:17:26.964Z,7.97
2023-03-15T21:18:58.974Z,7.96
2023-03-15T21:20:30.765Z,7.94